sensor_id;sensor_type;location;lat;lon;timestamp;pressure;altitude;pressure_sealevel;temperature;humidity
47763;BME280;33526;42.690;23.322;2023-03-03T00:01:06;95062.09;;;3.81;86.15
47763;BME280;33526;42.690;23.322;2023-03-03T00:03:32;95037.44;;;3.70;86.34
47763;BME280;33526;42.690;23.322;2023-03-03T00:05:58;95116.47;;;4.31;86.22
47763;BME280;33526;42.690;23.322;2023-03-03T00:08:24;95015.09;;;3.61;85.77
47763;BME280;33526;42.690;23.322;2023-03-03T00:10:51;95118.38;;;4.34;85.44
47763;BME280;33526;42.690;23.322;2023-03-03T00:13:25;95110.78;;;4.38;86.18
47763;BME280;33526;42.690;23.322;2023-03-03T00:15:52;94999.00;;;3.76;85.78
47763;BME280;33526;42.690;23.322;2023-03-03T00:18:32;95086.47;;;4.46;85.12
47763;BME280;33526;42.690;23.322;2023-03-03T00:21:01;95050.53;;;4.06;84.46
47763;BME280;33526;42.690;23.322;2023-03-03T00:23:38;95092.47;;;4.25;86.14
47763;BME280;33526;42.690;23.322;2023-03-03T00:26:17;95084.88;;;4.29;85.99
47763;BME280;33526;42.690;23.322;2023-03-03T00:28:48;95055.22;;;4.09;86.09
47763;BME280;33526;42.690;23.322;2023-03-03T00:31:17;95038.06;;;3.98;85.80
47763;BME280;33526;42.690;23.322;2023-03-03T00:33:49;95002.19;;;3.74;86.20
47763;BME280;33526;42.690;23.322;2023-03-03T00:38:48;95062.88;;;4.21;85.16
47763;BME280;33526;42.690;23.322;2023-03-03T00:41:25;95092.31;;;4.32;85.52
47763;BME280;33526;42.690;23.322;2023-03-03T00:43:51;95093.03;;;4.36;86.12
47763;BME280;33526;42.690;23.322;2023-03-03T00:46:22;95094.44;;;4.44;85.79
47763;BME280;33526;42.690;23.322;2023-03-03T00:48:48;95004.53;;;3.76;85.81
47763;BME280;33526;42.690;23.322;2023-03-03T00:51:27;95077.28;;;4.33;86.28
47763;BME280;33526;42.690;23.322;2023-03-03T00:53:53;95041.91;;;4.04;86.28
47763;BME280;33526;42.690;23.322;2023-03-03T00:56:19;95042.28;;;4.22;86.36
47763;BME280;33526;42.690;23.322;2023-03-03T00:58:45;95067.47;;;4.28;86.28
47763;BME280;33526;42.690;23.322;2023-03-03T01:01:12;95001.25;;;3.81;86.23
47763;BME280;33526;42.690;23.322;2023-03-03T01:03:38;94916.34;;;3.21;87.03
47763;BME280;33526;42.690;23.322;2023-03-03T01:06:04;94975.97;;;3.62;87.58
47763;BME280;33526;42.690;23.322;2023-03-03T01:08:29;94961.38;;;3.62;87.58
47763;BME280;33526;42.690;23.322;2023-03-03T01:10:57;95014.03;;;3.95;87.35
47763;BME280;33526;42.690;23.322;2023-03-03T01:13:30;95029.25;;;4.03;87.90
47763;BME280;33526;42.690;23.322;2023-03-03T01:15:57;95032.38;;;4.05;87.37
47763;BME280;33526;42.690;23.322;2023-03-03T01:18:25;95057.22;;;4.29;87.75
47763;BME280;33526;42.690;23.322;2023-03-03T01:20:50;94935.00;;;3.37;87.01
47763;BME280;33526;42.690;23.322;2023-03-03T01:23:16;95017.28;;;3.90;88.00
47763;BME280;33526;42.690;23.322;2023-03-03T01:25:41;95020.91;;;3.87;88.55
47763;BME280;33526;42.690;23.322;2023-03-03T01:28:07;94994.75;;;3.91;88.18
47763;BME280;33526;42.690;23.322;2023-03-03T01:30:32;95049.94;;;4.35;87.36
47763;BME280;33526;42.690;23.322;2023-03-03T01:32:58;94951.56;;;3.77;86.71
47763;BME280;33526;42.690;23.322;2023-03-03T01:35:23;95043.41;;;4.45;86.68
47763;BME280;33526;42.690;23.322;2023-03-03T01:37:49;94951.00;;;4.02;86.08
47763;BME280;33526;42.690;23.322;2023-03-03T01:40:19;94992.47;;;4.22;85.50
47763;BME280;33526;42.690;23.322;2023-03-03T01:42:44;95039.59;;;4.55;85.38
47763;BME280;33526;42.690;23.322;2023-03-03T01:47:47;95044.78;;;4.53;85.67
47763;BME280;33526;42.690;23.322;2023-03-03T01:50:25;95047.56;;;4.53;85.78
47763;BME280;33526;42.690;23.322;2023-03-03T01:52:53;94955.38;;;3.83;85.36
47763;BME280;33526;42.690;23.322;2023-03-03T01:55:21;94961.47;;;3.95;85.32
47763;BME280;33526;42.690;23.322;2023-03-03T01:57:56;94995.97;;;4.07;86.18
47763;BME280;33526;42.690;23.322;2023-03-03T02:00:23;95009.44;;;4.25;86.30
47763;BME280;33526;42.690;23.322;2023-03-03T02:02:49;94965.97;;;4.05;86.22
47763;BME280;33526;42.690;23.322;2023-03-03T02:05:15;94937.41;;;3.92;85.21
47763;BME280;33526;42.690;23.322;2023-03-03T02:07:41;95042.84;;;4.34;85.45
47763;BME280;33526;42.690;23.322;2023-03-03T02:10:16;95010.31;;;4.21;86.08
47763;BME280;33526;42.690;23.322;2023-03-03T02:12:49;95041.47;;;4.42;85.72
47763;BME280;33526;42.690;23.322;2023-03-03T02:15:16;95029.38;;;4.36;85.35
47763;BME280;33526;42.690;23.322;2023-03-03T02:17:42;94926.38;;;3.72;86.08
47763;BME280;33526;42.690;23.322;2023-03-03T02:20:19;94964.72;;;3.90;85.56
47763;BME280;33526;42.690;23.322;2023-03-03T02:22:57;95016.97;;;4.24;84.77
47763;BME280;33526;42.690;23.322;2023-03-03T02:28:24;95032.84;;;4.40;85.40
47763;BME280;33526;42.690;23.322;2023-03-03T02:30:54;95035.28;;;4.54;84.98
47763;BME280;33526;42.690;23.322;2023-03-03T02:33:19;94956.63;;;3.99;83.79
47763;BME280;33526;42.690;23.322;2023-03-03T02:35:48;95026.97;;;4.54;83.74
47763;BME280;33526;42.690;23.322;2023-03-03T02:38:16;95030.78;;;4.60;83.74
47763;BME280;33526;42.690;23.322;2023-03-03T02:41:10;95020.38;;;4.48;83.74
47763;BME280;33526;42.690;23.322;2023-03-03T02:44:06;95028.72;;;4.65;83.36
47763;BME280;33526;42.690;23.322;2023-03-03T02:46:40;95033.03;;;4.49;83.15
47763;BME280;33526;42.690;23.322;2023-03-03T02:49:08;95002.97;;;4.31;83.59
47763;BME280;33526;42.690;23.322;2023-03-03T02:51:35;94938.56;;;3.74;84.07
47763;BME280;33526;42.690;23.322;2023-03-03T02:54:01;95023.28;;;4.25;83.94
47763;BME280;33526;42.690;23.322;2023-03-03T02:56:27;94988.06;;;3.89;84.86
47763;BME280;33526;42.690;23.322;2023-03-03T02:58:52;94964.34;;;3.71;85.65
47763;BME280;33526;42.690;23.322;2023-03-03T03:01:18;94939.94;;;3.66;85.69
47763;BME280;33526;42.690;23.322;2023-03-03T03:03:44;94970.06;;;3.80;86.06
47763;BME280;33526;42.690;23.322;2023-03-03T03:06:09;95023.75;;;4.39;85.96
47763;BME280;33526;42.690;23.322;2023-03-03T03:08:35;95028.69;;;4.48;85.06
47763;BME280;33526;42.690;23.322;2023-03-03T03:11:01;95021.59;;;4.47;85.15
47763;BME280;33526;42.690;23.322;2023-03-03T03:13:27;95003.06;;;4.44;84.83
47763;BME280;33526;42.690;23.322;2023-03-03T03:15:52;94993.41;;;4.52;84.92
47763;BME280;33526;42.690;23.322;2023-03-03T03:18:18;94997.69;;;4.37;85.27
47763;BME280;33526;42.690;23.322;2023-03-03T03:20:44;94994.81;;;4.24;84.74
47763;BME280;33526;42.690;23.322;2023-03-03T03:23:10;94992.16;;;4.37;85.55
47763;BME280;33526;42.690;23.322;2023-03-03T03:25:36;94984.72;;;4.34;85.59
47763;BME280;33526;42.690;23.322;2023-03-03T03:28:12;94953.88;;;4.15;85.88
47763;BME280;33526;42.690;23.322;2023-03-03T03:30:38;94980.41;;;4.33;85.64
47763;BME280;33526;42.690;23.322;2023-03-03T03:33:04;95010.78;;;4.53;86.06
47763;BME280;33526;42.690;23.322;2023-03-03T03:35:31;94927.28;;;3.85;86.58
47763;BME280;33526;42.690;23.322;2023-03-03T03:37:56;95014.53;;;4.26;87.10
47763;BME280;33526;42.690;23.322;2023-03-03T03:40:21;95019.13;;;4.16;88.17
47763;BME280;33526;42.690;23.322;2023-03-03T03:42:47;94946.63;;;3.85;88.90
47763;BME280;33526;42.690;23.322;2023-03-03T03:45:12;94951.09;;;3.99;89.45
47763;BME280;33526;42.690;23.322;2023-03-03T03:47:40;94941.59;;;4.00;89.32
47763;BME280;33526;42.690;23.322;2023-03-03T03:50:07;94924.44;;;3.89;89.51
47763;BME280;33526;42.690;23.322;2023-03-03T03:52:33;94945.31;;;4.10;88.79
47763;BME280;33526;42.690;23.322;2023-03-03T03:54:59;94915.16;;;3.79;88.57
47763;BME280;33526;42.690;23.322;2023-03-03T03:57:24;94935.41;;;3.92;89.86
47763;BME280;33526;42.690;23.322;2023-03-03T03:59:50;95005.31;;;4.33;89.54
47763;BME280;33526;42.690;23.322;2023-03-03T04:02:15;94947.47;;;4.02;91.16
47763;BME280;33526;42.690;23.322;2023-03-03T04:04:41;94995.44;;;4.32;91.01
47763;BME280;33526;42.690;23.322;2023-03-03T04:07:06;94907.94;;;3.65;90.07
47763;BME280;33526;42.690;23.322;2023-03-03T04:09:32;94944.53;;;3.93;90.78
47763;BME280;33526;42.690;23.322;2023-03-03T04:11:59;94979.44;;;4.03;90.35
47763;BME280;33526;42.690;23.322;2023-03-03T04:14:24;94932.13;;;3.61;91.02
47763;BME280;33526;42.690;23.322;2023-03-03T04:16:49;94980.19;;;4.07;92.79
47763;BME280;33526;42.690;23.322;2023-03-03T04:19:15;94999.59;;;4.24;93.08
47763;BME280;33526;42.690;23.322;2023-03-03T04:21:40;94917.66;;;3.73;92.46
47763;BME280;33526;42.690;23.322;2023-03-03T04:24:06;94943.44;;;3.87;93.10
47763;BME280;33526;42.690;23.322;2023-03-03T04:26:32;94965.78;;;3.96;92.50
47763;BME280;33526;42.690;23.322;2023-03-03T04:28:58;94924.03;;;3.70;93.32
47763;BME280;33526;42.690;23.322;2023-03-03T04:31:24;94997.16;;;4.26;93.18
47763;BME280;33526;42.690;23.322;2023-03-03T04:33:50;94971.34;;;4.12;92.54
47763;BME280;33526;42.690;23.322;2023-03-03T04:36:17;94987.44;;;4.17;92.56
47763;BME280;33526;42.690;23.322;2023-03-03T04:38:43;94933.53;;;3.89;93.78
47763;BME280;33526;42.690;23.322;2023-03-03T04:41:08;94917.66;;;3.73;93.46
47763;BME280;33526;42.690;23.322;2023-03-03T04:43:34;94865.91;;;3.37;93.36
47763;BME280;33526;42.690;23.322;2023-03-03T04:45:59;94911.06;;;3.67;93.46
47763;BME280;33526;42.690;23.322;2023-03-03T04:48:25;94919.75;;;3.69;93.08
47763;BME280;33526;42.690;23.322;2023-03-03T04:50:50;94930.81;;;3.69;93.45
47763;BME280;33526;42.690;23.322;2023-03-03T04:53:15;94903.88;;;3.53;94.03
47763;BME280;33526;42.690;23.322;2023-03-03T04:55:41;94934.09;;;3.80;95.77
47763;BME280;33526;42.690;23.322;2023-03-03T04:58:06;94915.41;;;3.68;95.38
47763;BME280;33526;42.690;23.322;2023-03-03T05:00:34;95000.09;;;4.18;95.58
47763;BME280;33526;42.690;23.322;2023-03-03T05:03:00;94955.94;;;3.95;95.47
47763;BME280;33526;42.690;23.322;2023-03-03T05:05:25;94955.06;;;3.98;95.27
47763;BME280;33526;42.690;23.322;2023-03-03T05:07:52;94900.03;;;3.47;94.12
47763;BME280;33526;42.690;23.322;2023-03-03T05:10:18;94934.97;;;3.77;93.82
47763;BME280;33526;42.690;23.322;2023-03-03T05:12:43;94963.00;;;3.96;93.81
47763;BME280;33526;42.690;23.322;2023-03-03T05:15:09;95002.00;;;4.21;93.97
47763;BME280;33526;42.690;23.322;2023-03-03T05:17:35;94937.22;;;3.82;94.76
47763;BME280;33526;42.690;23.322;2023-03-03T05:20:01;95004.25;;;4.27;94.71
47763;BME280;33526;42.690;23.322;2023-03-03T05:22:26;94924.25;;;3.79;94.65
47763;BME280;33526;42.690;23.322;2023-03-03T05:24:52;94971.34;;;4.12;93.59
47763;BME280;33526;42.690;23.322;2023-03-03T05:27:19;94937.22;;;3.82;93.67
47763;BME280;33526;42.690;23.322;2023-03-03T05:29:44;94972.25;;;4.26;93.79
47763;BME280;33526;42.690;23.322;2023-03-03T05:32:10;95013.88;;;4.38;93.20
47763;BME280;33526;42.690;23.322;2023-03-03T05:34:35;95009.47;;;4.41;93.86
47763;BME280;33526;42.690;23.322;2023-03-03T05:37:01;94978.81;;;4.32;94.21
47763;BME280;33526;42.690;23.322;2023-03-03T05:39:28;94933.03;;;3.94;93.50
47763;BME280;33526;42.690;23.322;2023-03-03T05:41:53;94995.09;;;4.30;93.20
47763;BME280;33526;42.690;23.322;2023-03-03T05:44:20;94924.44;;;3.89;93.16
47763;BME280;33526;42.690;23.322;2023-03-03T05:46:45;94958.66;;;4.15;93.22
47763;BME280;33526;42.690;23.322;2023-03-03T05:49:10;94928.28;;;3.95;92.70
47763;BME280;33526;42.690;23.322;2023-03-03T05:51:36;94991.31;;;4.40;93.01
47763;BME280;33526;42.690;23.322;2023-03-03T05:54:01;95015.38;;;4.59;91.34
47763;BME280;33526;42.690;23.322;2023-03-03T05:56:27;95000.66;;;4.46;91.61
47763;BME280;33526;42.690;23.322;2023-03-03T05:58:52;94992.97;;;4.54;91.62
47763;BME280;33526;42.690;23.322;2023-03-03T06:01:18;94930.22;;;4.14;90.91
47763;BME280;33526;42.690;23.322;2023-03-03T06:03:43;94992.34;;;4.63;91.13
47763;BME280;33526;42.690;23.322;2023-03-03T06:06:08;94955.47;;;4.33;90.24
47763;BME280;33526;42.690;23.322;2023-03-03T06:08:34;95023.19;;;4.65;89.65
47763;BME280;33526;42.690;23.322;2023-03-03T06:11:00;95005.16;;;4.56;90.45
47763;BME280;33526;42.690;23.322;2023-03-03T06:13:25;95017.19;;;4.66;91.69
47763;BME280;33526;42.690;23.322;2023-03-03T06:15:51;94955.81;;;4.35;91.43
47763;BME280;33526;42.690;23.322;2023-03-03T06:18:16;94982.16;;;4.59;90.57
47763;BME280;33526;42.690;23.322;2023-03-03T06:20:42;95005.88;;;4.77;90.23
47763;BME280;33526;42.690;23.322;2023-03-03T06:23:07;94935.94;;;4.24;89.58
47763;BME280;33526;42.690;23.322;2023-03-03T06:25:33;95029.50;;;4.98;89.85
47763;BME280;33526;42.690;23.322;2023-03-03T06:28:00;94984.13;;;4.59;89.60
47763;BME280;33526;42.690;23.322;2023-03-03T06:30:25;95019.72;;;4.77;89.64
47763;BME280;33526;42.690;23.322;2023-03-03T06:32:53;94948.88;;;4.27;90.30
47763;BME280;33526;42.690;23.322;2023-03-03T06:35:19;94937.22;;;4.35;91.05
47763;BME280;33526;42.690;23.322;2023-03-03T06:37:47;95028.81;;;4.94;90.50
47763;BME280;33526;42.690;23.322;2023-03-03T06:40:15;94995.25;;;4.75;90.07
47763;BME280;33526;42.690;23.322;2023-03-03T06:42:41;94970.03;;;4.70;89.88
47763;BME280;33526;42.690;23.322;2023-03-03T06:45:07;95015.91;;;4.87;89.10
47763;BME280;33526;42.690;23.322;2023-03-03T06:47:32;95020.78;;;4.83;89.25
47763;BME280;33526;42.690;23.322;2023-03-03T06:49:58;95018.78;;;4.84;90.04
47763;BME280;33526;42.690;23.322;2023-03-03T06:52:25;95003.00;;;4.81;89.53
47763;BME280;33526;42.690;23.322;2023-03-03T06:54:53;94940.50;;;4.30;88.64
47763;BME280;33526;42.690;23.322;2023-03-03T06:57:25;95015.31;;;4.79;88.63
47763;BME280;33526;42.690;23.322;2023-03-03T06:59:53;95027.00;;;5.04;88.88
47763;BME280;33526;42.690;23.322;2023-03-03T07:02:20;94985.44;;;4.87;89.43
47763;BME280;33526;42.690;23.322;2023-03-03T07:04:46;94948.03;;;4.63;89.30
47763;BME280;33526;42.690;23.322;2023-03-03T07:07:23;94949.78;;;4.73;89.52
47763;BME280;33526;42.690;23.322;2023-03-03T07:09:52;95041.88;;;5.43;88.00
47763;BME280;33526;42.690;23.322;2023-03-03T07:12:23;95009.81;;;5.25;86.74
47763;BME280;33526;42.690;23.322;2023-03-03T07:17:43;94958.22;;;4.98;86.88
47763;BME280;33526;42.690;23.322;2023-03-03T07:20:35;95031.03;;;5.48;86.76
47763;BME280;33526;42.690;23.322;2023-03-03T07:23:20;95016.91;;;5.43;88.12
47763;BME280;33526;42.690;23.322;2023-03-03T07:25:47;94948.81;;;4.96;86.39
47763;BME280;33526;42.690;23.322;2023-03-03T07:28:21;94974.50;;;5.13;87.73
47763;BME280;33526;42.690;23.322;2023-03-03T07:30:47;95012.91;;;5.44;87.24
47763;BME280;33526;42.690;23.322;2023-03-03T07:33:26;95037.50;;;5.58;88.38
47763;BME280;33526;42.690;23.322;2023-03-03T07:35:54;94974.31;;;5.20;87.38
47763;BME280;33526;42.690;23.322;2023-03-03T07:38:40;94970.94;;;5.12;87.92
47763;BME280;33526;42.690;23.322;2023-03-03T07:41:14;95026.19;;;5.65;87.78
47763;BME280;33526;42.690;23.322;2023-03-03T07:43:49;94999.41;;;5.29;84.90
47763;BME280;33526;42.690;23.322;2023-03-03T07:46:33;95030.94;;;5.52;84.13
47763;BME280;33526;42.690;23.322;2023-03-03T07:49:11;95003.22;;;5.35;84.56
47763;BME280;33526;42.690;23.322;2023-03-03T07:51:41;95034.19;;;5.63;85.78
47763;BME280;33526;42.690;23.322;2023-03-03T07:54:30;95019.31;;;5.57;85.00
47763;BME280;33526;42.690;23.322;2023-03-03T07:59:43;94942.03;;;5.13;84.21
47763;BME280;33526;42.690;23.322;2023-03-03T08:04:47;95001.34;;;5.62;83.82
47763;BME280;33526;42.690;23.322;2023-03-03T08:07:18;94969.91;;;5.52;84.82
47763;BME280;33526;42.690;23.322;2023-03-03T08:09:50;95007.44;;;5.86;84.17
47763;BME280;33526;42.690;23.322;2023-03-03T08:12:33;94981.09;;;5.78;83.35
47763;BME280;33526;42.690;23.322;2023-03-03T08:15:14;95004.97;;;5.88;83.31
47763;BME280;33526;42.690;23.322;2023-03-03T08:17:41;94992.72;;;5.72;82.53
47763;BME280;33526;42.690;23.322;2023-03-03T08:22:55;94898.81;;;5.16;83.81
47763;BME280;33526;42.690;23.322;2023-03-03T08:25:20;94945.81;;;5.49;83.89
47763;BME280;33526;42.690;23.322;2023-03-03T08:27:45;94990.78;;;5.86;85.05
47763;BME280;33526;42.690;23.322;2023-03-03T08:30:11;94975.53;;;5.78;84.64
47763;BME280;33526;42.690;23.322;2023-03-03T08:32:37;94952.34;;;5.71;84.84
47763;BME280;33526;42.690;23.322;2023-03-03T08:35:02;95012.53;;;6.17;83.70
47763;BME280;33526;42.690;23.322;2023-03-03T08:37:28;94926.75;;;5.51;81.52
47763;BME280;33526;42.690;23.322;2023-03-03T08:39:53;95009.94;;;6.09;82.45
47763;BME280;33526;42.690;23.322;2023-03-03T08:42:19;94951.47;;;5.74;83.22
47763;BME280;33526;42.690;23.322;2023-03-03T08:44:44;94985.28;;;5.99;83.42
47763;BME280;33526;42.690;23.322;2023-03-03T08:47:09;95008.97;;;6.16;83.60
47763;BME280;33526;42.690;23.322;2023-03-03T08:49:35;95013.41;;;6.26;83.15
47763;BME280;33526;42.690;23.322;2023-03-03T08:52:00;94961.97;;;5.96;81.45
47763;BME280;33526;42.690;23.322;2023-03-03T08:54:26;95010.09;;;6.44;81.50
47763;BME280;33526;42.690;23.322;2023-03-03T08:56:51;94963.09;;;6.11;82.48
47763;BME280;33526;42.690;23.322;2023-03-03T08:59:16;95011.47;;;6.53;83.25
47763;BME280;33526;42.690;23.322;2023-03-03T09:01:42;95002.91;;;6.34;82.00
47763;BME280;33526;42.690;23.322;2023-03-03T09:04:09;95019.78;;;6.53;80.83
47763;BME280;33526;42.690;23.322;2023-03-03T09:06:35;94937.34;;;5.98;79.98
47763;BME280;33526;42.690;23.322;2023-03-03T09:09:00;94954.13;;;5.78;80.44
47763;BME280;33526;42.690;23.322;2023-03-03T09:11:27;94945.50;;;5.89;81.63
47763;BME280;33526;42.690;23.322;2023-03-03T09:14:10;94946.66;;;6.04;83.06
47763;BME280;33526;42.690;23.322;2023-03-03T09:16:38;95008.34;;;6.63;82.32
47763;BME280;33526;42.690;23.322;2023-03-03T09:19:33;95002.88;;;6.85;80.77
47763;BME280;33526;42.690;23.322;2023-03-03T09:22:17;95002.09;;;6.98;79.86
47763;BME280;33526;42.690;23.322;2023-03-03T09:24:45;94960.22;;;6.79;78.34
47763;BME280;33526;42.690;23.322;2023-03-03T09:27:17;94925.53;;;6.71;78.53
47763;BME280;33526;42.690;23.322;2023-03-03T09:29:43;95006.50;;;7.21;76.95
47763;BME280;33526;42.690;23.322;2023-03-03T09:32:21;95005.50;;;7.27;76.58
47763;BME280;33526;42.690;23.322;2023-03-03T09:34:48;94934.88;;;6.77;76.97
47763;BME280;33526;42.690;23.322;2023-03-03T09:39:55;95009.66;;;7.10;76.49
47763;BME280;33526;42.690;23.322;2023-03-03T09:45:21;94999.09;;;7.40;76.33
47763;BME280;33526;42.690;23.322;2023-03-03T09:53:54;95002.72;;;7.62;75.45
47763;BME280;33526;42.690;23.322;2023-03-03T09:56:32;94988.56;;;7.35;76.82
47763;BME280;33526;42.690;23.322;2023-03-03T10:01:30;95001.25;;;7.36;73.86
47763;BME280;33526;42.690;23.322;2023-03-03T10:04:14;95004.28;;;7.63;74.23
47763;BME280;33526;42.690;23.322;2023-03-03T10:15:15;94998.84;;;7.60;73.09
47763;BME280;33526;42.690;23.322;2023-03-03T10:17:51;94975.47;;;7.22;73.73
47763;BME280;33526;42.690;23.322;2023-03-03T10:23:44;94994.22;;;7.44;74.06
47763;BME280;33526;42.690;23.322;2023-03-03T10:39:58;94983.97;;;7.06;81.18
47763;BME280;33526;42.690;23.322;2023-03-03T10:45:32;94986.97;;;7.12;77.27
47763;BME280;33526;42.690;23.322;2023-03-03T10:48:06;94973.25;;;7.17;77.08
47763;BME280;33526;42.690;23.322;2023-03-03T11:01:58;94932.81;;;6.43;78.68
47763;BME280;33526;42.690;23.322;2023-03-03T11:06:57;94966.09;;;6.81;78.08
47763;BME280;33526;42.690;23.322;2023-03-03T11:09:38;94885.91;;;6.19;78.02
47763;BME280;33526;42.690;23.322;2023-03-03T11:14:53;94935.34;;;6.37;79.03
47763;BME280;33526;42.690;23.322;2023-03-03T11:17:31;94927.69;;;6.54;78.84
47763;BME280;33526;42.690;23.322;2023-03-03T11:22:54;94945.53;;;6.92;81.13
47763;BME280;33526;42.690;23.322;2023-03-03T11:25:31;94933.25;;;7.02;79.14
47763;BME280;33526;42.690;23.322;2023-03-03T11:28:11;94938.81;;;7.02;79.02
47763;BME280;33526;42.690;23.322;2023-03-03T11:36:15;94936.00;;;6.67;78.38
47763;BME280;33526;42.690;23.322;2023-03-03T11:38:58;94935.00;;;6.74;80.83
47763;BME280;33526;42.690;23.322;2023-03-03T12:02:54;94926.19;;;6.75;82.33
47763;BME280;33526;42.690;23.322;2023-03-03T12:05:38;94904.44;;;6.61;80.33
47763;BME280;33526;42.690;23.322;2023-03-03T12:13:46;94936.91;;;6.38;83.24
47763;BME280;33526;42.690;23.322;2023-03-03T12:16:50;94927.38;;;6.39;84.31
47763;BME280;33526;42.690;23.322;2023-03-03T12:22:42;94926.44;;;6.55;84.04
47763;BME280;33526;42.690;23.322;2023-03-03T12:25:22;94927.56;;;6.58;83.57
47763;BME280;33526;42.690;23.322;2023-03-03T12:28:00;94927.91;;;6.60;84.74
47763;BME280;33526;42.690;23.322;2023-03-03T12:36:30;94929.56;;;6.70;84.52
47763;BME280;33526;42.690;23.322;2023-03-03T12:44:37;94819.09;;;5.20;87.70
47763;BME280;33526;42.690;23.322;2023-03-03T12:47:15;94930.25;;;5.68;90.28
47763;BME280;33526;42.690;23.322;2023-03-03T12:52:44;94876.28;;;5.14;91.94
47763;BME280;33526;42.690;23.322;2023-03-03T12:55:29;94932.69;;;5.66;93.28
47763;BME280;33526;42.690;23.322;2023-03-03T12:58:24;94930.75;;;5.50;92.94
47763;BME280;33526;42.690;23.322;2023-03-03T13:04:12;94861.00;;;4.93;94.14
47763;BME280;33526;42.690;23.322;2023-03-03T13:07:01;94875.31;;;4.91;95.15
47763;BME280;33526;42.690;23.322;2023-03-03T13:09:55;94865.88;;;4.89;95.71
47763;BME280;33526;42.690;23.322;2023-03-03T13:21:04;94918.38;;;4.79;99.18
47763;BME280;33526;42.690;23.322;2023-03-03T13:26:55;94880.53;;;4.73;100.00
47763;BME280;33526;42.690;23.322;2023-03-03T13:29:24;94919.00;;;5.46;100.00
47763;BME280;33526;42.690;23.322;2023-03-03T13:32:20;94919.78;;;5.59;98.02
47763;BME280;33526;42.690;23.322;2023-03-03T13:35:08;94919.41;;;5.86;97.17
47763;BME280;33526;42.690;23.322;2023-03-03T13:37:47;94896.09;;;5.84;95.37
47763;BME280;33526;42.690;23.322;2023-03-03T13:40:17;94918.75;;;5.82;94.89
47763;BME280;33526;42.690;23.322;2023-03-03T13:43:04;94920.97;;;5.87;92.93
47763;BME280;33526;42.690;23.322;2023-03-03T13:51:18;94915.69;;;6.06;94.01
47763;BME280;33526;42.690;23.322;2023-03-03T13:53:56;94834.47;;;5.63;93.56
47763;BME280;33526;42.690;23.322;2023-03-03T13:56:40;94909.03;;;6.16;93.43
47763;BME280;33526;42.690;23.322;2023-03-03T14:02:22;94886.66;;;5.94;92.16
47763;BME280;33526;42.690;23.322;2023-03-03T14:05:00;94907.66;;;5.95;91.84
47763;BME280;33526;42.690;23.322;2023-03-03T14:07:36;94919.72;;;5.75;92.75
47763;BME280;33526;42.690;23.322;2023-03-03T14:10:12;94859.72;;;5.40;93.00
47763;BME280;33526;42.690;23.322;2023-03-03T14:15:32;94896.41;;;5.60;93.70
47763;BME280;33526;42.690;23.322;2023-03-03T14:20:28;94894.88;;;5.85;94.75
47763;BME280;33526;42.690;23.322;2023-03-03T14:22:58;94890.66;;;5.93;93.06
47763;BME280;33526;42.690;23.322;2023-03-03T14:25:24;94872.22;;;5.73;92.25
47763;BME280;33526;42.690;23.322;2023-03-03T14:28:01;94897.19;;;5.86;92.15
47763;BME280;33526;42.690;23.322;2023-03-03T14:35:37;94885.13;;;5.93;91.67
47763;BME280;33526;42.690;23.322;2023-03-03T14:38:16;94902.09;;;5.95;91.67
47763;BME280;33526;42.690;23.322;2023-03-03T14:40:44;94875.53;;;5.68;92.30
47763;BME280;33526;42.690;23.322;2023-03-03T14:43:32;94804.03;;;5.34;92.21
47763;BME280;33526;42.690;23.322;2023-03-03T14:48:55;94895.81;;;5.65;94.20
47763;BME280;33526;42.690;23.322;2023-03-03T14:51:26;94908.25;;;5.61;94.32
47763;BME280;33526;42.690;23.322;2023-03-03T14:53:54;94901.16;;;5.72;94.27
47763;BME280;33526;42.690;23.322;2023-03-03T14:56:27;94889.94;;;5.63;94.19
47763;BME280;33526;42.690;23.322;2023-03-03T14:59:16;94904.63;;;5.77;94.26
47763;BME280;33526;42.690;23.322;2023-03-03T15:01:43;94870.06;;;5.52;93.66
47763;BME280;33526;42.690;23.322;2023-03-03T15:06:47;94882.50;;;6.02;93.84
47763;BME280;33526;42.690;23.322;2023-03-03T15:14:45;94817.06;;;5.63;92.19
47763;BME280;33526;42.690;23.322;2023-03-03T15:17:36;94897.03;;;6.32;93.04
47763;BME280;33526;42.690;23.322;2023-03-03T15:25:43;94883.47;;;5.96;92.04
47763;BME280;33526;42.690;23.322;2023-03-03T15:34:23;94901.59;;;6.00;92.55
47763;BME280;33526;42.690;23.322;2023-03-03T15:42:26;94901.31;;;5.82;92.37
47763;BME280;33526;42.690;23.322;2023-03-03T15:45:37;94771.38;;;5.00;92.57
47763;BME280;33526;42.690;23.322;2023-03-03T15:56:38;94864.88;;;5.80;93.45
47763;BME280;33526;42.690;23.322;2023-03-03T15:59:37;94907.13;;;6.00;92.75
47763;BME280;33526;42.690;23.322;2023-03-03T16:05:01;94912.03;;;5.96;93.74
47763;BME280;33526;42.690;23.322;2023-03-03T16:07:42;94917.56;;;5.96;92.80
47763;BME280;33526;42.690;23.322;2023-03-03T16:13:47;94925.59;;;5.78;92.37
47763;BME280;33526;42.690;23.322;2023-03-03T16:18:44;94929.06;;;5.82;92.98
47763;BME280;33526;42.690;23.322;2023-03-03T16:27:31;94934.50;;;5.85;93.04
47763;BME280;33526;42.690;23.322;2023-03-03T16:32:43;94940.16;;;5.82;93.06
47763;BME280;33526;42.690;23.322;2023-03-03T16:35:31;94931.88;;;5.65;93.36
47763;BME280;33526;42.690;23.322;2023-03-03T16:38:03;94723.97;;;4.39;93.20
47763;BME280;33526;42.690;23.322;2023-03-03T16:40:35;94877.22;;;5.36;94.43
47763;BME280;33526;42.690;23.322;2023-03-03T16:45:38;94828.56;;;4.93;94.49
47763;BME280;33526;42.690;23.322;2023-03-03T16:56:13;94938.00;;;5.60;95.08
47763;BME280;33526;42.690;23.322;2023-03-03T17:04:20;94969.13;;;5.93;94.91
47763;BME280;33526;42.690;23.322;2023-03-03T17:06:53;94972.97;;;6.00;94.84
47763;BME280;33526;42.690;23.322;2023-03-03T17:22:19;94912.38;;;5.69;94.47
47763;BME280;33526;42.690;23.322;2023-03-03T17:25:19;94972.50;;;6.01;94.51
47763;BME280;33526;42.690;23.322;2023-03-03T17:30:51;94927.25;;;5.62;94.40